< < Back
Terminal Aerodrome Forecast


Current Version              Previous Versions:   1  2  3  4  5  6  7  8  9  

Terminal Aerodrome Forecast

343
FTUS42 KFFC 210928 AAB
TAFAHN
TAF AMD
KAHN 210928Z 2109/2206 05005KT 2SM BR OVC002
      TEMPO 2109/2113 1SM BR
     FM211400 06005KT 4SM BR OVC007
     FM211900 09007KT 6SM BR OVC012
     FM220400 09005KT 6SM BR OVC008=

Latest METAR

327
SAUS70 KWBC 211000
MTRAHN
METAR KAHN 210951Z AUTO 05007KT 2SM BR OVC002 07/06 A3021 RMK AO2 SLP232
T00670061


USA.gov is the U.S. government's official web portal to all federal, state and local government web resources and services.